sensor_id;sensor_type;location;lat;lon;timestamp;P1;durP1;ratioP1;P2;durP2;ratioP2
4957;SDS011;2494;51.872;9.688;2024-01-07T00:02:37;20.30;;;9.83;;
4957;SDS011;2494;51.872;9.688;2024-01-07T00:05:22;14.83;;;9.83;;
4957;SDS011;2494;51.872;9.688;2024-01-07T00:08:07;16.50;;;7.50;;
4957;SDS011;2494;51.872;9.688;2024-01-07T00:10:54;16.57;;;8.00;;
4957;SDS011;2494;51.872;9.688;2024-01-07T00:13:39;17.83;;;9.80;;
4957;SDS011;2494;51.872;9.688;2024-01-07T00:16:24;18.67;;;10.23;;
4957;SDS011;2494;51.872;9.688;2024-01-07T00:19:09;19.77;;;9.40;;
4957;SDS011;2494;51.872;9.688;2024-01-07T00:21:54;23.10;;;10.40;;
4957;SDS011;2494;51.872;9.688;2024-01-07T00:24:39;16.13;;;9.27;;
4957;SDS011;2494;51.872;9.688;2024-01-07T00:27:25;15.70;;;8.30;;
4957;SDS011;2494;51.872;9.688;2024-01-07T00:30:11;17.10;;;9.30;;
4957;SDS011;2494;51.872;9.688;2024-01-07T00:32:56;15.70;;;7.63;;
4957;SDS011;2494;51.872;9.688;2024-01-07T00:35:41;17.00;;;8.30;;
4957;SDS011;2494;51.872;9.688;2024-01-07T00:38:26;14.10;;;8.97;;
4957;SDS011;2494;51.872;9.688;2024-01-07T00:41:11;15.77;;;8.90;;
4957;SDS011;2494;51.872;9.688;2024-01-07T00:43:58;16.13;;;7.67;;
4957;SDS011;2494;51.872;9.688;2024-01-07T00:46:43;13.60;;;7.97;;
4957;SDS011;2494;51.872;9.688;2024-01-07T00:49:28;12.93;;;7.30;;
4957;SDS011;2494;51.872;9.688;2024-01-07T00:52:14;13.30;;;8.37;;
4957;SDS011;2494;51.872;9.688;2024-01-07T00:54:59;12.10;;;6.93;;
4957;SDS011;2494;51.872;9.688;2024-01-07T00:57:46;11.80;;;7.47;;
4957;SDS011;2494;51.872;9.688;2024-01-07T01:00:33;14.53;;;8.60;;
4957;SDS011;2494;51.872;9.688;2024-01-07T01:03:17;12.60;;;7.33;;
4957;SDS011;2494;51.872;9.688;2024-01-07T01:06:03;12.43;;;6.77;;
4957;SDS011;2494;51.872;9.688;2024-01-07T01:08:48;10.13;;;7.63;;
4957;SDS011;2494;51.872;9.688;2024-01-07T01:11:33;10.73;;;7.00;;
4957;SDS011;2494;51.872;9.688;2024-01-07T01:14:18;11.57;;;6.30;;
4957;SDS011;2494;51.872;9.688;2024-01-07T01:17:04;7.30;;;6.00;;
4957;SDS011;2494;51.872;9.688;2024-01-07T01:19:49;15.47;;;9.30;;
4957;SDS011;2494;51.872;9.688;2024-01-07T01:22:34;11.33;;;5.87;;
4957;SDS011;2494;51.872;9.688;2024-01-07T01:25:19;12.90;;;7.53;;
4957;SDS011;2494;51.872;9.688;2024-01-07T01:28:04;12.17;;;6.50;;
4957;SDS011;2494;51.872;9.688;2024-01-07T01:30:50;12.50;;;7.83;;
4957;SDS011;2494;51.872;9.688;2024-01-07T01:33:36;19.40;;;8.80;;
4957;SDS011;2494;51.872;9.688;2024-01-07T01:36:21;12.13;;;7.20;;
4957;SDS011;2494;51.872;9.688;2024-01-07T01:39:06;14.67;;;8.17;;
4957;SDS011;2494;51.872;9.688;2024-01-07T01:41:52;11.80;;;10.00;;
4957;SDS011;2494;51.872;9.688;2024-01-07T01:44:37;11.10;;;7.97;;
4957;SDS011;2494;51.872;9.688;2024-01-07T01:47:22;15.17;;;8.43;;
4957;SDS011;2494;51.872;9.688;2024-01-07T01:50:09;13.80;;;8.37;;
4957;SDS011;2494;51.872;9.688;2024-01-07T01:52:55;14.07;;;9.30;;
4957;SDS011;2494;51.872;9.688;2024-01-07T01:55:41;14.90;;;8.57;;
4957;SDS011;2494;51.872;9.688;2024-01-07T01:58:26;12.60;;;7.57;;
4957;SDS011;2494;51.872;9.688;2024-01-07T02:01:11;12.60;;;9.13;;
4957;SDS011;2494;51.872;9.688;2024-01-07T02:03:57;11.97;;;8.30;;
4957;SDS011;2494;51.872;9.688;2024-01-07T02:06:43;13.00;;;8.57;;
4957;SDS011;2494;51.872;9.688;2024-01-07T02:09:29;16.27;;;8.10;;
4957;SDS011;2494;51.872;9.688;2024-01-07T02:12:14;14.20;;;8.27;;
4957;SDS011;2494;51.872;9.688;2024-01-07T02:14:59;10.97;;;7.57;;
4957;SDS011;2494;51.872;9.688;2024-01-07T02:17:44;15.00;;;9.00;;
4957;SDS011;2494;51.872;9.688;2024-01-07T02:20:29;12.37;;;7.60;;
4957;SDS011;2494;51.872;9.688;2024-01-07T02:23:15;21.93;;;7.17;;
4957;SDS011;2494;51.872;9.688;2024-01-07T02:26:02;11.87;;;8.07;;
4957;SDS011;2494;51.872;9.688;2024-01-07T02:28:48;12.83;;;7.10;;
4957;SDS011;2494;51.872;9.688;2024-01-07T02:31:33;7.40;;;6.60;;
4957;SDS011;2494;51.872;9.688;2024-01-07T02:34:17;10.80;;;6.70;;
4957;SDS011;2494;51.872;9.688;2024-01-07T02:37:03;10.27;;;6.10;;
4957;SDS011;2494;51.872;9.688;2024-01-07T02:39:48;15.03;;;8.50;;
4957;SDS011;2494;51.872;9.688;2024-01-07T02:42:34;11.23;;;8.10;;
4957;SDS011;2494;51.872;9.688;2024-01-07T02:45:19;10.07;;;6.93;;
4957;SDS011;2494;51.872;9.688;2024-01-07T02:48:04;13.33;;;7.30;;
4957;SDS011;2494;51.872;9.688;2024-01-07T02:50:49;9.33;;;6.80;;
4957;SDS011;2494;51.872;9.688;2024-01-07T02:53:34;10.70;;;7.10;;
4957;SDS011;2494;51.872;9.688;2024-01-07T02:56:19;6.77;;;5.27;;
4957;SDS011;2494;51.872;9.688;2024-01-07T02:59:06;7.90;;;5.10;;
4957;SDS011;2494;51.872;9.688;2024-01-07T03:01:51;12.67;;;7.00;;
4957;SDS011;2494;51.872;9.688;2024-01-07T03:04:36;5.70;;;4.67;;
4957;SDS011;2494;51.872;9.688;2024-01-07T03:07:21;7.13;;;6.40;;
4957;SDS011;2494;51.872;9.688;2024-01-07T03:10:07;7.73;;;4.97;;
4957;SDS011;2494;51.872;9.688;2024-01-07T03:12:52;7.57;;;5.77;;
4957;SDS011;2494;51.872;9.688;2024-01-07T03:15:38;5.53;;;4.43;;
4957;SDS011;2494;51.872;9.688;2024-01-07T03:18:24;9.10;;;5.47;;
4957;SDS011;2494;51.872;9.688;2024-01-07T03:21:15;10.70;;;6.50;;
4957;SDS011;2494;51.872;9.688;2024-01-07T03:24:01;9.03;;;6.40;;
4957;SDS011;2494;51.872;9.688;2024-01-07T03:26:46;10.27;;;6.53;;
4957;SDS011;2494;51.872;9.688;2024-01-07T03:29:31;7.73;;;6.10;;
4957;SDS011;2494;51.872;9.688;2024-01-07T03:32:17;10.07;;;8.03;;
4957;SDS011;2494;51.872;9.688;2024-01-07T03:35:03;14.10;;;6.60;;
4957;SDS011;2494;51.872;9.688;2024-01-07T03:37:48;7.03;;;4.93;;
4957;SDS011;2494;51.872;9.688;2024-01-07T03:40:33;10.57;;;6.77;;
4957;SDS011;2494;51.872;9.688;2024-01-07T03:43:17;7.83;;;5.20;;
4957;SDS011;2494;51.872;9.688;2024-01-07T03:46:02;9.10;;;6.40;;
4957;SDS011;2494;51.872;9.688;2024-01-07T03:48:49;11.00;;;6.40;;
4957;SDS011;2494;51.872;9.688;2024-01-07T03:51:34;7.47;;;5.27;;
4957;SDS011;2494;51.872;9.688;2024-01-07T03:54:19;8.30;;;5.17;;
4957;SDS011;2494;51.872;9.688;2024-01-07T03:57:04;9.03;;;6.33;;
4957;SDS011;2494;51.872;9.688;2024-01-07T03:59:49;9.33;;;6.67;;
4957;SDS011;2494;51.872;9.688;2024-01-07T04:02:34;6.07;;;4.70;;
4957;SDS011;2494;51.872;9.688;2024-01-07T04:05:21;9.47;;;6.77;;
4957;SDS011;2494;51.872;9.688;2024-01-07T04:08:08;5.73;;;5.10;;
4957;SDS011;2494;51.872;9.688;2024-01-07T04:10:54;8.90;;;5.20;;
4957;SDS011;2494;51.872;9.688;2024-01-07T04:13:39;6.63;;;4.97;;
4957;SDS011;2494;51.872;9.688;2024-01-07T04:16:24;7.90;;;5.37;;
4957;SDS011;2494;51.872;9.688;2024-01-07T04:19:09;8.87;;;5.47;;
4957;SDS011;2494;51.872;9.688;2024-01-07T04:21:55;7.60;;;4.83;;
4957;SDS011;2494;51.872;9.688;2024-01-07T04:24:40;8.43;;;5.70;;
4957;SDS011;2494;51.872;9.688;2024-01-07T04:27:25;10.33;;;5.53;;
4957;SDS011;2494;51.872;9.688;2024-01-07T04:30:10;9.57;;;5.67;;
4957;SDS011;2494;51.872;9.688;2024-01-07T04:32:56;8.23;;;5.20;;
4957;SDS011;2494;51.872;9.688;2024-01-07T04:35:41;6.47;;;5.73;;
4957;SDS011;2494;51.872;9.688;2024-01-07T04:38:27;8.60;;;5.20;;
4957;SDS011;2494;51.872;9.688;2024-01-07T04:41:13;9.40;;;5.40;;
4957;SDS011;2494;51.872;9.688;2024-01-07T04:43:58;10.83;;;5.17;;
4957;SDS011;2494;51.872;9.688;2024-01-07T04:46:43;13.10;;;6.70;;
4957;SDS011;2494;51.872;9.688;2024-01-07T04:49:28;10.03;;;5.37;;
4957;SDS011;2494;51.872;9.688;2024-01-07T04:52:13;6.23;;;4.40;;
4957;SDS011;2494;51.872;9.688;2024-01-07T04:54:59;8.17;;;4.57;;
4957;SDS011;2494;51.872;9.688;2024-01-07T04:57:44;4.73;;;4.00;;
4957;SDS011;2494;51.872;9.688;2024-01-07T05:00:29;6.07;;;3.83;;
4957;SDS011;2494;51.872;9.688;2024-01-07T05:03:14;9.03;;;5.53;;
4957;SDS011;2494;51.872;9.688;2024-01-07T05:05:59;8.00;;;5.40;;
4957;SDS011;2494;51.872;9.688;2024-01-07T05:08:43;7.60;;;3.43;;
4957;SDS011;2494;51.872;9.688;2024-01-07T05:11:30;6.30;;;5.10;;
4957;SDS011;2494;51.872;9.688;2024-01-07T05:14:16;5.77;;;4.60;;
4957;SDS011;2494;51.872;9.688;2024-01-07T05:17:01;5.47;;;4.67;;
4957;SDS011;2494;51.872;9.688;2024-01-07T05:19:46;5.23;;;4.07;;
4957;SDS011;2494;51.872;9.688;2024-01-07T05:22:30;7.00;;;4.30;;
4957;SDS011;2494;51.872;9.688;2024-01-07T05:25:15;5.50;;;4.70;;
4957;SDS011;2494;51.872;9.688;2024-01-07T05:28:02;4.80;;;3.30;;
4957;SDS011;2494;51.872;9.688;2024-01-07T05:30:47;4.30;;;3.90;;
4957;SDS011;2494;51.872;9.688;2024-01-07T05:33:32;5.73;;;4.43;;
4957;SDS011;2494;51.872;9.688;2024-01-07T05:36:17;5.40;;;4.90;;
4957;SDS011;2494;51.872;9.688;2024-01-07T05:39:03;5.67;;;3.97;;
4957;SDS011;2494;51.872;9.688;2024-01-07T05:41:48;5.90;;;4.50;;
4957;SDS011;2494;51.872;9.688;2024-01-07T05:44:34;7.97;;;4.07;;
4957;SDS011;2494;51.872;9.688;2024-01-07T05:47:19;4.53;;;3.43;;
4957;SDS011;2494;51.872;9.688;2024-01-07T05:50:04;6.93;;;4.53;;
4957;SDS011;2494;51.872;9.688;2024-01-07T05:52:50;5.77;;;3.60;;
4957;SDS011;2494;51.872;9.688;2024-01-07T05:55:35;10.30;;;4.40;;
4957;SDS011;2494;51.872;9.688;2024-01-07T05:58:20;4.53;;;3.57;;
4957;SDS011;2494;51.872;9.688;2024-01-07T06:01:06;4.67;;;3.40;;
4957;SDS011;2494;51.872;9.688;2024-01-07T06:03:52;3.90;;;3.30;;
4957;SDS011;2494;51.872;9.688;2024-01-07T06:06:37;6.33;;;4.00;;
4957;SDS011;2494;51.872;9.688;2024-01-07T06:09:22;7.93;;;4.90;;
4957;SDS011;2494;51.872;9.688;2024-01-07T06:12:07;4.93;;;3.63;;
4957;SDS011;2494;51.872;9.688;2024-01-07T06:14:52;9.23;;;4.83;;
4957;SDS011;2494;51.872;9.688;2024-01-07T06:17:38;4.87;;;4.20;;
4957;SDS011;2494;51.872;9.688;2024-01-07T06:20:23;5.47;;;4.10;;
4957;SDS011;2494;51.872;9.688;2024-01-07T06:23:09;4.13;;;3.43;;
4957;SDS011;2494;51.872;9.688;2024-01-07T06:25:54;5.57;;;2.80;;
4957;SDS011;2494;51.872;9.688;2024-01-07T06:28:39;3.53;;;2.80;;
4957;SDS011;2494;51.872;9.688;2024-01-07T06:31:23;7.43;;;3.30;;
4957;SDS011;2494;51.872;9.688;2024-01-07T06:34:10;3.73;;;3.30;;
4957;SDS011;2494;51.872;9.688;2024-01-07T06:36:58;4.17;;;2.23;;
4957;SDS011;2494;51.872;9.688;2024-01-07T06:39:43;3.53;;;2.37;;
4957;SDS011;2494;51.872;9.688;2024-01-07T06:42:28;3.90;;;2.90;;
4957;SDS011;2494;51.872;9.688;2024-01-07T06:45:13;4.70;;;3.40;;
4957;SDS011;2494;51.872;9.688;2024-01-07T06:47:59;2.73;;;2.53;;
4957;SDS011;2494;51.872;9.688;2024-01-07T06:50:46;2.80;;;1.97;;
4957;SDS011;2494;51.872;9.688;2024-01-07T06:53:32;1.93;;;1.63;;
4957;SDS011;2494;51.872;9.688;2024-01-07T06:56:17;6.20;;;1.83;;
4957;SDS011;2494;51.872;9.688;2024-01-07T06:59:02;9.73;;;3.30;;
4957;SDS011;2494;51.872;9.688;2024-01-07T07:01:47;3.27;;;1.93;;
4957;SDS011;2494;51.872;9.688;2024-01-07T07:04:33;1.90;;;1.70;;
4957;SDS011;2494;51.872;9.688;2024-01-07T07:07:20;2.40;;;1.73;;
4957;SDS011;2494;51.872;9.688;2024-01-07T07:10:06;1.53;;;1.30;;
4957;SDS011;2494;51.872;9.688;2024-01-07T07:12:51;4.13;;;2.33;;
4957;SDS011;2494;51.872;9.688;2024-01-07T07:15:37;2.17;;;1.67;;
4957;SDS011;2494;51.872;9.688;2024-01-07T07:18:22;1.80;;;1.70;;
4957;SDS011;2494;51.872;9.688;2024-01-07T07:21:08;1.70;;;1.60;;
4957;SDS011;2494;51.872;9.688;2024-01-07T07:23:55;1.70;;;1.50;;
4957;SDS011;2494;51.872;9.688;2024-01-07T07:26:40;1.50;;;1.40;;
4957;SDS011;2494;51.872;9.688;2024-01-07T07:29:26;2.47;;;1.50;;
4957;SDS011;2494;51.872;9.688;2024-01-07T07:32:11;4.83;;;1.60;;
4957;SDS011;2494;51.872;9.688;2024-01-07T07:34:56;2.80;;;2.37;;
4957;SDS011;2494;51.872;9.688;2024-01-07T07:37:41;2.20;;;1.63;;
4957;SDS011;2494;51.872;9.688;2024-01-07T07:40:28;2.10;;;1.90;;
4957;SDS011;2494;51.872;9.688;2024-01-07T07:43:14;4.97;;;1.63;;
4957;SDS011;2494;51.872;9.688;2024-01-07T07:45:59;4.33;;;2.30;;
4957;SDS011;2494;51.872;9.688;2024-01-07T07:48:46;1.60;;;1.50;;
4957;SDS011;2494;51.872;9.688;2024-01-07T07:51:32;2.10;;;1.70;;
4957;SDS011;2494;51.872;9.688;2024-01-07T07:54:17;2.67;;;2.47;;
4957;SDS011;2494;51.872;9.688;2024-01-07T07:57:04;2.80;;;1.50;;
4957;SDS011;2494;51.872;9.688;2024-01-07T07:59:50;1.87;;;1.40;;
4957;SDS011;2494;51.872;9.688;2024-01-07T08:02:35;5.43;;;1.90;;
4957;SDS011;2494;51.872;9.688;2024-01-07T08:05:21;1.93;;;1.73;;
4957;SDS011;2494;51.872;9.688;2024-01-07T08:08:06;2.93;;;2.70;;
4957;SDS011;2494;51.872;9.688;2024-01-07T08:10:51;1.80;;;1.70;;
4957;SDS011;2494;51.872;9.688;2024-01-07T08:13:39;3.90;;;1.60;;
4957;SDS011;2494;51.872;9.688;2024-01-07T08:16:24;2.30;;;2.10;;
4957;SDS011;2494;51.872;9.688;2024-01-07T08:19:09;1.77;;;1.67;;
4957;SDS011;2494;51.872;9.688;2024-01-07T08:21:55;2.07;;;1.77;;
4957;SDS011;2494;51.872;9.688;2024-01-07T08:24:41;2.17;;;1.60;;
4957;SDS011;2494;51.872;9.688;2024-01-07T08:27:27;2.23;;;1.90;;
4957;SDS011;2494;51.872;9.688;2024-01-07T08:30:14;3.03;;;1.80;;
4957;SDS011;2494;51.872;9.688;2024-01-07T08:33:00;2.17;;;2.07;;
4957;SDS011;2494;51.872;9.688;2024-01-07T08:35:45;2.50;;;1.90;;
4957;SDS011;2494;51.872;9.688;2024-01-07T08:38:31;3.37;;;2.10;;
4957;SDS011;2494;51.872;9.688;2024-01-07T08:41:16;1.90;;;1.70;;
4957;SDS011;2494;51.872;9.688;2024-01-07T08:44:02;1.90;;;1.43;;
4957;SDS011;2494;51.872;9.688;2024-01-07T08:46:48;3.53;;;1.87;;
4957;SDS011;2494;51.872;9.688;2024-01-07T08:49:34;3.23;;;2.03;;
4957;SDS011;2494;51.872;9.688;2024-01-07T08:52:19;1.60;;;1.50;;
4957;SDS011;2494;51.872;9.688;2024-01-07T08:55:05;1.40;;;1.30;;
4957;SDS011;2494;51.872;9.688;2024-01-07T08:57:53;2.07;;;1.97;;
4957;SDS011;2494;51.872;9.688;2024-01-07T09:00:39;1.37;;;1.27;;
4957;SDS011;2494;51.872;9.688;2024-01-07T09:03:25;1.67;;;1.57;;
4957;SDS011;2494;51.872;9.688;2024-01-07T09:06:11;2.80;;;2.10;;
4957;SDS011;2494;51.872;9.688;2024-01-07T09:08:56;3.93;;;2.23;;
4957;SDS011;2494;51.872;9.688;2024-01-07T09:11:41;4.57;;;1.83;;
4957;SDS011;2494;51.872;9.688;2024-01-07T09:14:27;3.50;;;3.23;;
4957;SDS011;2494;51.872;9.688;2024-01-07T09:17:12;1.30;;;1.20;;
4957;SDS011;2494;51.872;9.688;2024-01-07T09:19:59;3.87;;;2.40;;
4957;SDS011;2494;51.872;9.688;2024-01-07T09:22:44;3.27;;;2.57;;
4957;SDS011;2494;51.872;9.688;2024-01-07T09:25:29;2.07;;;1.70;;
4957;SDS011;2494;51.872;9.688;2024-01-07T09:28:14;2.30;;;1.53;;
4957;SDS011;2494;51.872;9.688;2024-01-07T09:31:00;2.30;;;1.60;;
4957;SDS011;2494;51.872;9.688;2024-01-07T09:33:45;3.47;;;1.50;;
4957;SDS011;2494;51.872;9.688;2024-01-07T09:36:32;1.93;;;1.37;;
4957;SDS011;2494;51.872;9.688;2024-01-07T09:39:17;7.50;;;3.23;;
4957;SDS011;2494;51.872;9.688;2024-01-07T09:42:02;1.77;;;1.67;;
4957;SDS011;2494;51.872;9.688;2024-01-07T09:44:48;1.93;;;1.70;;
4957;SDS011;2494;51.872;9.688;2024-01-07T09:47:35;2.00;;;1.80;;
4957;SDS011;2494;51.872;9.688;2024-01-07T09:50:20;1.90;;;1.37;;
4957;SDS011;2494;51.872;9.688;2024-01-07T09:53:07;2.40;;;2.10;;
4957;SDS011;2494;51.872;9.688;2024-01-07T09:55:57;2.77;;;2.37;;
4957;SDS011;2494;51.872;9.688;2024-01-07T09:58:46;2.53;;;2.20;;
4957;SDS011;2494;51.872;9.688;2024-01-07T10:01:33;2.10;;;1.73;;
4957;SDS011;2494;51.872;9.688;2024-01-07T10:04:19;1.67;;;1.57;;
4957;SDS011;2494;51.872;9.688;2024-01-07T10:07:05;3.03;;;2.00;;
4957;SDS011;2494;51.872;9.688;2024-01-07T10:09:52;1.77;;;1.50;;
4957;SDS011;2494;51.872;9.688;2024-01-07T10:12:39;2.73;;;1.93;;
4957;SDS011;2494;51.872;9.688;2024-01-07T10:15:24;1.67;;;1.57;;
4957;SDS011;2494;51.872;9.688;2024-01-07T10:18:10;2.07;;;1.60;;
4957;SDS011;2494;51.872;9.688;2024-01-07T10:20:55;4.23;;;1.90;;
4957;SDS011;2494;51.872;9.688;2024-01-07T10:23:40;1.97;;;1.77;;
4957;SDS011;2494;51.872;9.688;2024-01-07T10:26:27;1.57;;;1.40;;
4957;SDS011;2494;51.872;9.688;2024-01-07T10:29:12;1.87;;;1.40;;
4957;SDS011;2494;51.872;9.688;2024-01-07T10:31:59;2.13;;;1.57;;
4957;SDS011;2494;51.872;9.688;2024-01-07T10:34:47;1.43;;;1.33;;
4957;SDS011;2494;51.872;9.688;2024-01-07T10:37:32;1.40;;;1.20;;
4957;SDS011;2494;51.872;9.688;2024-01-07T10:40:18;3.73;;;1.83;;
4957;SDS011;2494;51.872;9.688;2024-01-07T10:43:04;7.17;;;2.13;;
4957;SDS011;2494;51.872;9.688;2024-01-07T10:45:51;2.33;;;1.47;;
4957;SDS011;2494;51.872;9.688;2024-01-07T10:48:37;4.13;;;1.97;;
4957;SDS011;2494;51.872;9.688;2024-01-07T10:51:23;1.77;;;1.67;;
4957;SDS011;2494;51.872;9.688;2024-01-07T10:54:09;2.50;;;1.63;;
4957;SDS011;2494;51.872;9.688;2024-01-07T10:56:57;1.70;;;1.60;;
4957;SDS011;2494;51.872;9.688;2024-01-07T10:59:44;5.27;;;1.63;;
4957;SDS011;2494;51.872;9.688;2024-01-07T11:02:30;2.23;;;1.50;;
4957;SDS011;2494;51.872;9.688;2024-01-07T11:05:17;5.63;;;2.30;;
4957;SDS011;2494;51.872;9.688;2024-01-07T11:08:05;1.57;;;1.40;;
4957;SDS011;2494;51.872;9.688;2024-01-07T11:10:53;1.60;;;1.50;;
4957;SDS011;2494;51.872;9.688;2024-01-07T11:13:40;1.60;;;1.50;;
4957;SDS011;2494;51.872;9.688;2024-01-07T11:19:21;2.53;;;2.10;;
4957;SDS011;2494;51.872;9.688;2024-01-07T11:22:23;2.20;;;1.57;;
4957;SDS011;2494;51.872;9.688;2024-01-07T11:25:29;1.40;;;1.30;;
4957;SDS011;2494;51.872;9.688;2024-01-07T11:28:15;1.60;;;1.50;;
4957;SDS011;2494;51.872;9.688;2024-01-07T11:31:01;2.93;;;1.57;;
4957;SDS011;2494;51.872;9.688;2024-01-07T11:33:47;1.80;;;1.53;;
4957;SDS011;2494;51.872;9.688;2024-01-07T11:36:34;2.93;;;2.73;;
4957;SDS011;2494;51.872;9.688;2024-01-07T11:39:19;6.83;;;1.77;;
4957;SDS011;2494;51.872;9.688;2024-01-07T11:42:04;2.93;;;2.73;;
4957;SDS011;2494;51.872;9.688;2024-01-07T11:44:51;2.50;;;1.77;;
4957;SDS011;2494;51.872;9.688;2024-01-07T11:47:36;2.43;;;2.00;;
4957;SDS011;2494;51.872;9.688;2024-01-07T11:50:21;2.20;;;1.70;;
4957;SDS011;2494;51.872;9.688;2024-01-07T11:53:08;3.57;;;1.60;;
4957;SDS011;2494;51.872;9.688;2024-01-07T11:55:56;5.17;;;1.73;;
4957;SDS011;2494;51.872;9.688;2024-01-07T11:58:42;2.20;;;1.80;;
4957;SDS011;2494;51.872;9.688;2024-01-07T12:01:27;3.87;;;1.73;;
4957;SDS011;2494;51.872;9.688;2024-01-07T12:04:12;2.63;;;2.43;;
4957;SDS011;2494;51.872;9.688;2024-01-07T12:06:57;2.80;;;1.87;;
4957;SDS011;2494;51.872;9.688;2024-01-07T12:09:44;1.87;;;1.77;;
4957;SDS011;2494;51.872;9.688;2024-01-07T12:12:31;2.47;;;1.93;;
4957;SDS011;2494;51.872;9.688;2024-01-07T12:15:16;2.43;;;2.00;;
4957;SDS011;2494;51.872;9.688;2024-01-07T12:18:03;4.40;;;2.17;;
4957;SDS011;2494;51.872;9.688;2024-01-07T12:20:55;5.40;;;2.20;;
4957;SDS011;2494;51.872;9.688;2024-01-07T12:23:41;7.67;;;2.47;;
4957;SDS011;2494;51.872;9.688;2024-01-07T12:26:28;5.50;;;2.90;;
4957;SDS011;2494;51.872;9.688;2024-01-07T12:29:13;4.33;;;2.70;;
4957;SDS011;2494;51.872;9.688;2024-01-07T12:31:59;2.80;;;2.37;;
4957;SDS011;2494;51.872;9.688;2024-01-07T12:34:47;2.80;;;2.13;;
4957;SDS011;2494;51.872;9.688;2024-01-07T12:37:35;2.63;;;2.43;;
4957;SDS011;2494;51.872;9.688;2024-01-07T12:40:21;2.20;;;2.00;;
4957;SDS011;2494;51.872;9.688;2024-01-07T12:43:09;3.00;;;1.90;;
4957;SDS011;2494;51.872;9.688;2024-01-07T12:45:55;3.27;;;2.40;;
4957;SDS011;2494;51.872;9.688;2024-01-07T12:48:41;2.67;;;2.20;;
4957;SDS011;2494;51.872;9.688;2024-01-07T12:51:25;2.13;;;1.90;;
4957;SDS011;2494;51.872;9.688;2024-01-07T12:54:11;1.53;;;1.43;;
4957;SDS011;2494;51.872;9.688;2024-01-07T12:56:57;2.30;;;2.07;;
4957;SDS011;2494;51.872;9.688;2024-01-07T12:59:45;7.87;;;2.97;;
4957;SDS011;2494;51.872;9.688;2024-01-07T13:02:33;3.00;;;2.33;;
4957;SDS011;2494;51.872;9.688;2024-01-07T13:05:20;6.70;;;4.33;;
4957;SDS011;2494;51.872;9.688;2024-01-07T13:08:05;3.63;;;2.97;;
4957;SDS011;2494;51.872;9.688;2024-01-07T13:10:51;4.97;;;3.93;;
4957;SDS011;2494;51.872;9.688;2024-01-07T13:13:36;8.03;;;4.37;;
4957;SDS011;2494;51.872;9.688;2024-01-07T13:16:23;4.60;;;3.60;;
4957;SDS011;2494;51.872;9.688;2024-01-07T13:19:09;4.33;;;2.97;;
4957;SDS011;2494;51.872;9.688;2024-01-07T13:21:55;4.57;;;3.60;;
4957;SDS011;2494;51.872;9.688;2024-01-07T13:24:42;4.93;;;3.20;;
4957;SDS011;2494;51.872;9.688;2024-01-07T13:27:27;4.37;;;3.97;;
4957;SDS011;2494;51.872;9.688;2024-01-07T13:30:12;3.13;;;2.27;;
4957;SDS011;2494;51.872;9.688;2024-01-07T13:32:59;3.93;;;2.43;;
4957;SDS011;2494;51.872;9.688;2024-01-07T13:35:44;2.50;;;2.30;;
4957;SDS011;2494;51.872;9.688;2024-01-07T13:38:30;3.67;;;2.13;;
4957;SDS011;2494;51.872;9.688;2024-01-07T13:41:16;3.47;;;2.33;;
4957;SDS011;2494;51.872;9.688;2024-01-07T13:44:02;2.63;;;2.43;;
4957;SDS011;2494;51.872;9.688;2024-01-07T13:46:48;2.20;;;2.00;;
4957;SDS011;2494;51.872;9.688;2024-01-07T13:49:37;4.13;;;2.00;;
4957;SDS011;2494;51.872;9.688;2024-01-07T13:52:23;3.43;;;2.50;;
4957;SDS011;2494;51.872;9.688;2024-01-07T13:55:08;2.57;;;2.00;;
4957;SDS011;2494;51.872;9.688;2024-01-07T13:57:54;3.73;;;1.87;;
4957;SDS011;2494;51.872;9.688;2024-01-07T14:00:40;3.20;;;2.57;;
4957;SDS011;2494;51.872;9.688;2024-01-07T14:03:25;2.83;;;2.63;;
4957;SDS011;2494;51.872;9.688;2024-01-07T14:06:12;3.23;;;2.30;;
4957;SDS011;2494;51.872;9.688;2024-01-07T14:08:57;2.57;;;2.37;;
4957;SDS011;2494;51.872;9.688;2024-01-07T14:11:42;4.93;;;1.90;;
4957;SDS011;2494;51.872;9.688;2024-01-07T14:14:27;2.70;;;2.40;;
4957;SDS011;2494;51.872;9.688;2024-01-07T14:17:13;1.97;;;1.87;;
4957;SDS011;2494;51.872;9.688;2024-01-07T14:19:58;9.73;;;2.20;;
4957;SDS011;2494;51.872;9.688;2024-01-07T14:22:45;2.60;;;1.80;;
4957;SDS011;2494;51.872;9.688;2024-01-07T14:25:30;1.90;;;1.80;;
4957;SDS011;2494;51.872;9.688;2024-01-07T14:28:15;2.77;;;2.43;;
4957;SDS011;2494;51.872;9.688;2024-01-07T14:31:01;1.83;;;1.73;;
4957;SDS011;2494;51.872;9.688;2024-01-07T14:33:47;3.00;;;1.80;;
4957;SDS011;2494;51.872;9.688;2024-01-07T14:36:32;2.27;;;1.73;;
4957;SDS011;2494;51.872;9.688;2024-01-07T14:39:18;1.70;;;1.30;;
4957;SDS011;2494;51.872;9.688;2024-01-07T14:42:04;2.10;;;1.80;;
4957;SDS011;2494;51.872;9.688;2024-01-07T14:44:49;1.37;;;1.27;;
4957;SDS011;2494;51.872;9.688;2024-01-07T14:47:35;1.93;;;1.80;;
4957;SDS011;2494;51.872;9.688;2024-01-07T14:50:20;2.00;;;1.60;;
4957;SDS011;2494;51.872;9.688;2024-01-07T14:53:06;3.50;;;2.10;;
4957;SDS011;2494;51.872;9.688;2024-01-07T14:55:53;2.17;;;1.80;;
4957;SDS011;2494;51.872;9.688;2024-01-07T14:58:38;22.17;;;9.83;;
4957;SDS011;2494;51.872;9.688;2024-01-07T15:01:24;9.37;;;4.83;;
4957;SDS011;2494;51.872;9.688;2024-01-07T15:04:11;2.17;;;1.80;;
4957;SDS011;2494;51.872;9.688;2024-01-07T15:06:57;1.90;;;1.20;;
4957;SDS011;2494;51.872;9.688;2024-01-07T15:09:42;2.47;;;1.83;;
4957;SDS011;2494;51.872;9.688;2024-01-07T15:12:29;1.90;;;1.60;;
4957;SDS011;2494;51.872;9.688;2024-01-07T15:15:19;1.50;;;1.40;;
4957;SDS011;2494;51.872;9.688;2024-01-07T15:18:06;3.13;;;1.90;;
4957;SDS011;2494;51.872;9.688;2024-01-07T15:20:51;2.13;;;1.93;;
4957;SDS011;2494;51.872;9.688;2024-01-07T15:23:36;3.23;;;1.83;;
4957;SDS011;2494;51.872;9.688;2024-01-07T15:26:21;3.83;;;1.80;;
4957;SDS011;2494;51.872;9.688;2024-01-07T15:29:08;2.40;;;1.80;;
4957;SDS011;2494;51.872;9.688;2024-01-07T15:31:53;3.73;;;2.53;;
4957;SDS011;2494;51.872;9.688;2024-01-07T15:34:39;1.30;;;1.20;;
4957;SDS011;2494;51.872;9.688;2024-01-07T15:37:25;1.60;;;1.37;;
4957;SDS011;2494;51.872;9.688;2024-01-07T15:40:10;3.20;;;1.40;;
4957;SDS011;2494;51.872;9.688;2024-01-07T15:42:58;1.77;;;1.67;;
4957;SDS011;2494;51.872;9.688;2024-01-07T15:45:46;1.90;;;1.30;;
4957;SDS011;2494;51.872;9.688;2024-01-07T15:48:31;1.77;;;1.63;;
4957;SDS011;2494;51.872;9.688;2024-01-07T15:51:16;4.03;;;2.10;;
4957;SDS011;2494;51.872;9.688;2024-01-07T15:54:01;1.77;;;1.67;;
4957;SDS011;2494;51.872;9.688;2024-01-07T15:56:46;1.70;;;1.60;;
4957;SDS011;2494;51.872;9.688;2024-01-07T15:59:32;2.37;;;2.17;;
4957;SDS011;2494;51.872;9.688;2024-01-07T16:02:20;1.70;;;1.60;;
4957;SDS011;2494;51.872;9.688;2024-01-07T16:05:06;3.30;;;1.67;;
4957;SDS011;2494;51.872;9.688;2024-01-07T16:07:51;2.13;;;1.87;;
4957;SDS011;2494;51.872;9.688;2024-01-07T16:10:36;2.30;;;1.60;;
4957;SDS011;2494;51.872;9.688;2024-01-07T16:13:21;2.07;;;1.67;;
4957;SDS011;2494;51.872;9.688;2024-01-07T16:16:07;1.60;;;1.50;;
4957;SDS011;2494;51.872;9.688;2024-01-07T16:18:53;4.20;;;1.40;;
4957;SDS011;2494;51.872;9.688;2024-01-07T16:21:39;2.70;;;1.67;;
4957;SDS011;2494;51.872;9.688;2024-01-07T16:24:24;1.70;;;1.57;;
4957;SDS011;2494;51.872;9.688;2024-01-07T16:27:09;2.00;;;1.37;;
4957;SDS011;2494;51.872;9.688;2024-01-07T16:29:56;1.90;;;1.60;;
4957;SDS011;2494;51.872;9.688;2024-01-07T16:32:41;1.70;;;1.53;;
4957;SDS011;2494;51.872;9.688;2024-01-07T16:35:29;1.93;;;1.70;;
4957;SDS011;2494;51.872;9.688;2024-01-07T16:38:14;1.60;;;1.50;;
4957;SDS011;2494;51.872;9.688;2024-01-07T16:41:00;3.30;;;1.50;;
4957;SDS011;2494;51.872;9.688;2024-01-07T16:43:44;1.40;;;1.30;;
4957;SDS011;2494;51.872;9.688;2024-01-07T16:46:29;2.63;;;1.50;;
4957;SDS011;2494;51.872;9.688;2024-01-07T16:49:14;1.90;;;1.67;;
4957;SDS011;2494;51.872;9.688;2024-01-07T16:52:01;4.13;;;1.57;;
4957;SDS011;2494;51.872;9.688;2024-01-07T16:54:46;1.60;;;1.50;;
4957;SDS011;2494;51.872;9.688;2024-01-07T16:57:31;2.73;;;1.50;;
4957;SDS011;2494;51.872;9.688;2024-01-07T17:00:16;2.03;;;1.67;;
4957;SDS011;2494;51.872;9.688;2024-01-07T17:03:03;5.33;;;1.90;;
4957;SDS011;2494;51.872;9.688;2024-01-07T17:05:48;1.73;;;1.60;;
4957;SDS011;2494;51.872;9.688;2024-01-07T17:08:34;1.43;;;1.33;;
4957;SDS011;2494;51.872;9.688;2024-01-07T17:11:20;3.57;;;1.60;;